Time;durP1;ratioP1;P1;durP2;ratioP2;P2;SDS_P1;SDS_P2;PMS_P1;PMS_P2;Temp;Humidity;BMP_temperature;BMP_pressure;BME280_temperature;BME280_humidity;BME280_pressure;Samples;Min_cycle;Max_cycle;Signal;HPM_P1;HPM_P2
2022/12/30 00:01:39;;;;;;;;;;;;;;;4.61;100.00;101025.97;4993451;28;20031;-63
2022/12/30 00:04:05;;;;;;;;;;;;;;;4.59;100.00;101030.22;4993505;28;19910;-63
2022/12/30 00:06:30;;;;;;;;;;;;;;;4.58;100.00;101031.09;4991961;28;19925;-63
2022/12/30 00:08:57;;;;;;;;;;;;;;;4.56;100.00;101035.38;4993805;28;19918;-63
2022/12/30 00:11:26;;;;;;;;;;;;;;;4.58;100.00;101027.66;4984436;28;19910;-63
2022/12/30 00:33:28;;;;;;;;;;;;;;;4.59;100.00;101035.38;4994168;28;19920;-62
2022/12/30 00:35:54;;;;;;;;;;;;;;;4.59;100.00;101035.38;4994978;28;19937;-63
2022/12/30 00:38:19;;;;;;;;;;;;;;;4.57;100.00;101037.06;4995951;28;20410;-65
2022/12/30 00:43:07;;;;;;;;;;;;;;;4.57;100.00;101028.53;4977115;28;19920;-66
2022/12/30 00:43:29;;;;;;;;;;;;;;;4.54;100.00;101026.81;4992979;28;20327;-67
2022/12/30 00:45:55;;;;;;;;;;;;;;;4.54;100.00;101024.22;4992496;28;20406;-66
2022/12/30 00:56:33;;;;;;;;;;;;;;;4.45;100.00;101037.03;4992373;28;20355;-66
2022/12/30 00:58:58;;;;;;;;;;;;;;;4.47;100.00;101037.03;4993599;28;20383;-66
2022/12/30 01:01:23;;;;;;;;;;;;;;;4.46;100.00;101036.19;4993485;28;20365;-66
2022/12/30 01:03:48;;;;;;;;;;;;;;;4.48;100.00;101039.63;4994356;28;19952;-66
2022/12/30 01:06:13;;;;;;;;;;;;;;;4.45;100.00;101042.16;4973899;28;19917;-66
2022/12/30 01:08:39;;;;;;;;;;;;;;;4.41;100.00;101035.31;4991364;28;19933;-65
2022/12/30 01:11:07;;;;;;;;;;;;;;;4.41;100.00;101043.00;4992992;28;19921;-66
2022/12/30 01:13:33;;;;;;;;;;;;;;;4.41;100.00;101043.00;4990830;28;19906;-66
2022/12/30 01:16:05;;;;;;;;;;;;;;;4.42;100.00;101051.56;4986834;28;19953;-66
2022/12/30 01:18:30;;;;;;;;;;;;;;;4.43;100.00;101053.28;4990533;28;19909;-66
2022/12/30 01:20:58;;;;;;;;;;;;;;;4.42;100.00;101052.44;4976361;28;19909;-66
2022/12/30 01:23:23;;;;;;;;;;;;;;;4.41;100.00;101049.84;4993534;28;19916;-66
2022/12/30 01:25:48;;;;;;;;;;;;;;;4.38;100.00;101051.53;4992297;28;19906;-65
2022/12/30 01:28:14;;;;;;;;;;;;;;;4.38;100.00;101064.38;4993694;28;19914;-66
2022/12/30 01:30:39;;;;;;;;;;;;;;;4.37;100.00;101062.66;4990953;28;19920;-66
2022/12/30 01:33:04;;;;;;;;;;;;;;;4.34;100.00;101070.34;4988412;28;19910;-66
2022/12/30 01:35:31;;;;;;;;;;;;;;;4.30;100.00;101072.88;4993132;28;19921;-66
2022/12/30 01:37:56;;;;;;;;;;;;;;;4.27;100.00;101078.84;4980119;28;19910;-66
2022/12/30 01:40:21;;;;;;;;;;;;;;;4.25;100.00;101074.56;4989219;28;20316;-66
2022/12/30 01:42:47;;;;;;;;;;;;;;;4.24;100.00;101073.69;4993510;28;19975;-66
2022/12/30 01:45:23;;;;;;;;;;;;;;;4.22;100.00;101077.13;4985365;28;20005;-66
2022/12/30 01:47:59;;;;;;;;;;;;;;;4.20;100.00;101077.09;4992004;28;20000;-66
2022/12/30 01:50:34;;;;;;;;;;;;;;;4.18;100.00;101083.06;4993466;28;20450;-66
2022/12/30 01:52:59;;;;;;;;;;;;;;;4.22;100.00;101079.69;4993143;28;19956;-65
2022/12/30 01:55:37;;;;;;;;;;;;;;;4.19;100.00;101084.78;4992489;28;19913;-66
2022/12/30 01:58:04;;;;;;;;;;;;;;;4.19;100.00;101092.47;4979443;28;19917;-66
2022/12/30 02:00:30;;;;;;;;;;;;;;;4.18;100.00;101089.06;4991701;28;20373;-66
2022/12/30 02:02:56;;;;;;;;;;;;;;;4.21;100.00;101099.34;4992279;28;19920;-65
2022/12/30 02:05:23;;;;;;;;;;;;;;;4.20;100.00;101104.47;4994548;28;19921;-66
2022/12/30 02:07:56;;;;;;;;;;;;;;;4.23;100.00;101100.19;4992749;28;19956;-66
2022/12/30 02:10:21;;;;;;;;;;;;;;;4.24;100.00;101099.34;4992836;28;19929;-66
2022/12/30 02:12:47;;;;;;;;;;;;;;;4.23;100.00;101104.50;4990809;28;19917;-66
2022/12/30 02:15:13;;;;;;;;;;;;;;;4.20;100.00;101097.63;4988262;28;19910;-66
2022/12/30 02:18:05;;;;;;;;;;;;;;;4.18;100.00;101091.63;4991552;28;19914;-66
2022/12/30 02:20:45;;;;;;;;;;;;;;;4.15;100.00;101093.31;4986936;28;19921;-66
2022/12/30 02:23:14;;;;;;;;;;;;;;;4.13;100.00;101087.31;4987819;28;19918;-66
2022/12/30 02:25:42;;;;;;;;;;;;;;;4.09;100.00;101089.03;4992120;28;19909;-66
2022/12/30 02:28:26;;;;;;;;;;;;;;;4.07;100.00;101080.44;4992462;28;20004;-66
2022/12/30 02:31:12;;;;;;;;;;;;;;;4.05;100.00;101086.41;4991993;28;19909;-66
2022/12/30 02:33:42;;;;;;;;;;;;;;;4.00;100.00;101065.88;4992769;28;20379;-66
2022/12/30 02:36:07;;;;;;;;;;;;;;;3.96;100.00;101062.41;4990780;28;20398;-66
2022/12/30 02:38:38;;;;;;;;;;;;;;;3.95;100.00;101064.97;4984357;28;19917;-63
2022/12/30 02:46:41;;;;;;;;;;;;;;;3.89;100.00;101063.22;4993829;28;20391;-63
2022/12/30 02:49:08;;;;;;;;;;;;;;;3.86;100.00;101052.94;4994519;28;19914;-63
2022/12/30 02:54:19;;;;;;;;;;;;;;;3.79;100.00;101045.19;4993354;28;19920;-63
2022/12/30 02:56:51;;;;;;;;;;;;;;;3.73;100.00;101051.16;4991457;28;19910;-63
2022/12/30 03:05:00;;;;;;;;;;;;;;;3.63;100.00;101039.09;4983585;28;19972;-63
2022/12/30 03:07:28;;;;;;;;;;;;;;;3.58;100.00;101033.09;4992107;28;19945;-63
2022/12/30 03:12:45;;;;;;;;;;;;;;;3.47;100.00;101033.00;4991962;28;20020;-66
2022/12/30 03:15:15;;;;;;;;;;;;;;;3.42;100.00;101031.22;4990607;28;19936;-66
2022/12/30 03:17:42;;;;;;;;;;;;;;;3.35;100.00;101032.88;4992001;28;20040;-66
2022/12/30 03:20:09;;;;;;;;;;;;;;;3.33;100.00;101039.72;4974773;28;19916;-66
2022/12/30 03:28:07;;;;;;;;;;;;;;;3.19;100.00;101028.50;4991047;28;19925;-66
2022/12/30 03:30:35;;;;;;;;;;;;;;;3.16;100.00;101033.56;4987939;28;19914;-65
2022/12/30 03:33:01;;;;;;;;;;;;;;;3.13;100.00;101041.25;4982998;28;19960;-66
2022/12/30 03:35:27;;;;;;;;;;;;;;;3.08;100.00;101030.06;4989853;28;20489;-66
2022/12/30 03:37:55;;;;;;;;;;;;;;;3.05;100.00;101033.47;4990678;28;19921;-66
2022/12/30 03:40:32;;;;;;;;;;;;;;;3.00;100.00;101027.44;4988537;28;19910;-64
2022/12/30 03:42:58;;;;;;;;;;;;;;;2.97;100.00;101029.97;4996418;28;19914;-63
2022/12/30 03:45:24;;;;;;;;;;;;;;;2.94;100.00;101035.06;4976024;28;20439;-63
2022/12/30 03:47:49;;;;;;;;;;;;;;;2.93;100.00;101033.38;4988076;28;19922;-62
2022/12/30 03:50:15;;;;;;;;;;;;;;;2.92;100.00;101039.31;4997701;28;20295;-63
2022/12/30 03:52:40;;;;;;;;;;;;;;;2.90;100.00;101035.03;4986900;28;19965;-62
2022/12/30 03:55:05;;;;;;;;;;;;;;;2.88;100.00;101046.94;4967051;28;19921;-64
2022/12/30 03:57:31;;;;;;;;;;;;;;;2.85;100.00;101045.22;4996115;28;19957;-63
2022/12/30 03:59:56;;;;;;;;;;;;;;;2.83;100.00;101043.47;4982239;28;19910;-63
2022/12/30 04:02:21;;;;;;;;;;;;;;;2.80;100.00;101039.16;4985247;28;19909;-63
2022/12/30 04:04:47;;;;;;;;;;;;;;;2.77;100.00;101034.03;4995538;28;19913;-63
2022/12/30 04:07:12;;;;;;;;;;;;;;;2.78;100.00;101038.31;4994888;28;19918;-63
2022/12/30 04:09:39;;;;;;;;;;;;;;;2.75;100.00;101036.56;4995939;28;19924;-66
2022/12/30 04:12:04;;;;;;;;;;;;;;;2.73;100.00;101033.13;4994321;28;19921;-66
2022/12/30 04:14:29;;;;;;;;;;;;;;;2.72;100.00;101040.81;4994938;28;19902;-66
2022/12/30 04:16:55;;;;;;;;;;;;;;;2.74;100.00;101028.88;4992547;28;20299;-66
2022/12/30 04:19:20;;;;;;;;;;;;;;;2.74;100.00;101034.84;4995139;28;19909;-66
2022/12/30 04:21:45;;;;;;;;;;;;;;;2.72;100.00;101046.78;4994127;28;20358;-66
2022/12/30 04:24:11;;;;;;;;;;;;;;;2.70;100.00;101040.78;4993128;28;20422;-66
2022/12/30 04:26:36;;;;;;;;;;;;;;;2.69;100.00;101048.44;4994631;28;20013;-66
2022/12/30 04:29:01;;;;;;;;;;;;;;;2.69;100.00;101051.00;4993305;28;19914;-66
2022/12/30 04:31:26;;;;;;;;;;;;;;;2.69;100.00;101056.13;4993384;28;19914;-66
2022/12/30 04:33:52;;;;;;;;;;;;;;;2.67;100.00;101052.66;4993856;28;19917;-66
2022/12/30 04:36:18;;;;;;;;;;;;;;;2.66;100.00;101056.09;4993958;28;19914;-66
2022/12/30 04:38:43;;;;;;;;;;;;;;;2.62;100.00;101052.63;4993129;28;19922;-66
2022/12/30 04:41:09;;;;;;;;;;;;;;;2.62;100.00;101049.22;4994412;28;20372;-66
2022/12/30 04:43:34;;;;;;;;;;;;;;;2.59;100.00;101052.59;4993548;28;20000;-66
2022/12/30 04:45:59;;;;;;;;;;;;;;;2.58;100.00;101035.53;4992329;28;19913;-65
2022/12/30 04:48:24;;;;;;;;;;;;;;;2.57;100.00;101043.19;4992718;28;19913;-66
2022/12/30 04:50:49;;;;;;;;;;;;;;;2.56;100.00;101042.31;4993827;28;19917;-66
2022/12/30 04:53:15;;;;;;;;;;;;;;;2.54;100.00;101041.44;4993420;28;19920;-66
2022/12/30 04:55:40;;;;;;;;;;;;;;;2.52;100.00;101035.47;4993756;28;19914;-66
2022/12/30 04:58:05;;;;;;;;;;;;;;;2.52;100.00;101030.34;4992899;28;20353;-66
2022/12/30 05:00:31;;;;;;;;;;;;;;;2.53;100.00;101034.59;4994422;28;19905;-66
2022/12/30 05:02:56;;;;;;;;;;;;;;;2.54;100.00;101041.44;4993249;28;20081;-66
2022/12/30 05:05:21;;;;;;;;;;;;;;;2.54;100.00;101036.31;4992668;28;19920;-66
2022/12/30 05:07:46;;;;;;;;;;;;;;;2.54;100.00;101036.31;4991710;28;19917;-66
2022/12/30 05:10:11;;;;;;;;;;;;;;;2.56;100.00;101038.91;4993699;28;20392;-66
2022/12/30 05:12:37;;;;;;;;;;;;;;;2.55;100.00;101034.63;4993368;28;19914;-66
2022/12/30 05:15:03;;;;;;;;;;;;;;;2.56;100.00;101039.75;4992144;28;19978;-66
2022/12/30 05:17:28;;;;;;;;;;;;;;;2.55;100.00;101038.03;4992199;28;20403;-66
2022/12/30 05:19:53;;;;;;;;;;;;;;;2.55;100.00;101032.06;4993567;28;19913;-66
2022/12/30 05:22:19;;;;;;;;;;;;;;;2.57;100.00;101025.28;4993489;28;20025;-66
2022/12/30 05:27:28;;;;;;;;;;;;;;;2.58;100.00;101019.31;4989704;28;19921;-66
2022/12/30 05:29:53;;;;;;;;;;;;;;;2.56;100.00;101021.84;4983772;28;19913;-66
2022/12/30 05:32:18;;;;;;;;;;;;;;;2.56;100.00;101034.66;4992636;28;19996;-66
2022/12/30 05:34:43;;;;;;;;;;;;;;;2.56;100.00;101039.75;4991984;28;19953;-66
2022/12/30 05:37:08;;;;;;;;;;;;;;;2.56;100.00;101037.19;4992800;28;19923;-66
2022/12/30 05:39:34;;;;;;;;;;;;;;;2.57;100.00;101040.63;4992626;28;19916;-66
2022/12/30 05:41:59;;;;;;;;;;;;;;;2.56;100.00;101026.09;4993275;28;19910;-66
2022/12/30 05:44:25;;;;;;;;;;;;;;;2.56;100.00;101026.97;4991952;28;19916;-66
2022/12/30 05:46:50;;;;;;;;;;;;;;;2.57;100.00;101030.38;4961449;28;19977;-66
2022/12/30 05:49:16;;;;;;;;;;;;;;;2.58;100.00;101025.31;4993132;28;19913;-66
2022/12/30 05:51:41;;;;;;;;;;;;;;;2.60;100.00;101030.41;4992333;28;19914;-66
2022/12/30 05:54:06;;;;;;;;;;;;;;;2.60;100.00;101025.28;4991163;28;19914;-66
2022/12/30 05:56:31;;;;;;;;;;;;;;;2.61;100.00;101027.00;4992382;28;19914;-66
2022/12/30 05:58:57;;;;;;;;;;;;;;;2.60;100.00;101027.84;4992900;28;19993;-66
2022/12/30 06:01:22;;;;;;;;;;;;;;;2.60;100.00;101023.59;4992150;28;19914;-66
2022/12/30 06:03:47;;;;;;;;;;;;;;;2.60;100.00;101022.72;4992808;28;19920;-67
2022/12/30 06:06:12;;;;;;;;;;;;;;;2.61;100.00;101015.06;4983705;28;19926;-66
2022/12/30 06:08:38;;;;;;;;;;;;;;;2.63;100.00;101010.00;4989398;28;19964;-67
2022/12/30 06:11:03;;;;;;;;;;;;;;;2.65;100.00;101018.56;4991991;28;20273;-66
2022/12/30 06:13:29;;;;;;;;;;;;;;;2.66;100.00;101020.28;4991561;28;19921;-66
2022/12/30 06:15:54;;;;;;;;;;;;;;;2.66;100.00;101004.91;4990754;28;20257;-66
2022/12/30 06:18:19;;;;;;;;;;;;;;;2.66;100.00;100999.81;4990998;28;19921;-66
2022/12/30 06:20:45;;;;;;;;;;;;;;;2.66;100.00;100997.25;4991825;28;19914;-66
2022/12/30 06:23:10;;;;;;;;;;;;;;;2.66;100.00;100992.94;4991525;28;19913;-66
2022/12/30 06:25:36;;;;;;;;;;;;;;;2.67;100.00;100994.66;4991632;28;19961;-66
2022/12/30 06:28:01;;;;;;;;;;;;;;;2.69;100.00;100999.81;4991180;28;19917;-66
2022/12/30 06:30:26;;;;;;;;;;;;;;;2.70;100.00;100991.31;4991742;28;20102;-66
2022/12/30 06:32:54;;;;;;;;;;;;;;;2.74;100.00;100993.03;4992567;28;19916;-66
2022/12/30 06:35:20;;;;;;;;;;;;;;;2.75;100.00;100992.19;4991253;28;19960;-66
2022/12/30 06:37:45;;;;;;;;;;;;;;;2.77;100.00;100983.72;4991437;28;19909;-66
2022/12/30 06:40:10;;;;;;;;;;;;;;;2.77;100.00;100983.72;4991959;28;19916;-67
2022/12/30 06:42:36;;;;;;;;;;;;;;;2.78;100.00;100985.44;4990835;28;20191;-66
2022/12/30 06:45:01;;;;;;;;;;;;;;;2.81;100.00;100993.97;4990298;28;20009;-66
2022/12/30 06:47:26;;;;;;;;;;;;;;;2.82;100.00;100988.84;4990407;28;19917;-66
2022/12/30 06:49:51;;;;;;;;;;;;;;;2.84;100.00;100983.75;4991298;28;20418;-66
2022/12/30 06:52:17;;;;;;;;;;;;;;;2.87;100.00;100960.75;4991101;28;19968;-66
2022/12/30 06:54:42;;;;;;;;;;;;;;;2.89;100.00;100953.94;4990585;28;19914;-66
2022/12/30 06:57:07;;;;;;;;;;;;;;;2.90;100.00;100948.84;4983072;28;19910;-66
2022/12/30 06:59:32;;;;;;;;;;;;;;;2.89;100.00;100947.13;4984619;28;19967;-66
2022/12/30 07:01:58;;;;;;;;;;;;;;;2.88;100.00;100947.97;4989533;28;20069;-66
2022/12/30 07:04:23;;;;;;;;;;;;;;;2.88;100.00;100934.31;4987403;28;19918;-66
2022/12/30 07:06:48;;;;;;;;;;;;;;;2.87;100.00;100924.91;4988820;28;19996;-66
2022/12/30 07:09:13;;;;;;;;;;;;;;;2.87;100.00;100920.63;4991239;28;19932;-66
2022/12/30 07:11:39;;;;;;;;;;;;;;;2.88;100.00;100921.50;4991082;28;19953;-66
2022/12/30 07:14:04;;;;;;;;;;;;;;;2.88;100.00;100914.69;4990206;28;20005;-66
2022/12/30 07:16:30;;;;;;;;;;;;;;;2.90;100.00;100907.03;4990326;28;20005;-66
2022/12/30 07:18:55;;;;;;;;;;;;;;;2.91;100.00;100904.47;4985534;28;19921;-66
2022/12/30 07:21:20;;;;;;;;;;;;;;;2.92;100.00;100901.09;4988924;28;20080;-66
2022/12/30 07:23:45;;;;;;;;;;;;;;;2.94;100.00;100908.75;4990025;28;20447;-67
2022/12/30 07:26:10;;;;;;;;;;;;;;;2.97;100.00;100914.78;4990081;28;19965;-66
2022/12/30 07:28:36;;;;;;;;;;;;;;;3.01;100.00;100910.53;4984510;28;20013;-66
2022/12/30 07:31:01;;;;;;;;;;;;;;;3.04;100.00;100910.56;4986571;28;19949;-66
2022/12/30 07:33:26;;;;;;;;;;;;;;;3.06;100.00;100912.28;4992878;28;19913;-66
2022/12/30 07:35:52;;;;;;;;;;;;;;;3.09;100.00;100911.44;4990715;28;19997;-66
2022/12/30 07:38:17;;;;;;;;;;;;;;;3.14;100.00;100904.63;4988934;28;19918;-66
2022/12/30 07:40:42;;;;;;;;;;;;;;;3.19;100.00;100890.19;4989927;28;20396;-66
2022/12/30 07:43:07;;;;;;;;;;;;;;;3.22;100.00;100884.22;4990407;28;20374;-66
2022/12/30 07:45:33;;;;;;;;;;;;;;;3.26;100.00;100880.84;4990519;28;19933;-66
2022/12/30 07:47:58;;;;;;;;;;;;;;;3.27;100.00;100872.31;4986775;28;19957;-67
2022/12/30 07:50:23;;;;;;;;;;;;;;;3.29;100.00;100865.47;4990778;28;19918;-66
2022/12/30 07:52:49;;;;;;;;;;;;;;;3.32;100.00;100857.81;4989130;28;19936;-66
2022/12/30 07:55:14;;;;;;;;;;;;;;;3.33;100.00;100860.41;4985218;28;19913;-66
2022/12/30 07:57:39;;;;;;;;;;;;;;;3.35;100.00;100850.13;4987144;28;19921;-66
2022/12/30 08:00:05;;;;;;;;;;;;;;;3.35;100.00;100848.44;4969698;28;19921;-66
2022/12/30 08:02:30;;;;;;;;;;;;;;;3.40;100.00;100845.91;4986205;28;19964;-66
2022/12/30 08:04:55;;;;;;;;;;;;;;;3.45;100.00;100847.66;4992085;28;19920;-66
2022/12/30 08:07:20;;;;;;;;;;;;;;;3.48;100.00;100836.56;4986648;28;19918;-66
2022/12/30 08:09:45;;;;;;;;;;;;;;;3.50;100.00;100825.47;4988501;28;20377;-66
2022/12/30 08:12:11;;;;;;;;;;;;;;;3.54;100.00;100819.53;4990175;28;19918;-66
2022/12/30 08:14:36;;;;;;;;;;;;;;;3.58;100.00;100825.50;4990474;28;19914;-66
2022/12/30 08:17:01;;;;;;;;;;;;;;;3.62;100.00;100816.13;4989455;28;20399;-66
2022/12/30 08:19:27;;;;;;;;;;;;;;;3.70;100.00;100819.56;4991331;28;19917;-63
2022/12/30 08:21:52;;;;;;;;;;;;;;;3.76;100.00;100814.44;4992056;28;19909;-63
2022/12/30 08:24:17;;;;;;;;;;;;;;;3.80;100.00;100813.63;4986230;28;20569;-63
2022/12/30 08:26:43;;;;;;;;;;;;;;;3.85;100.00;100817.06;4990595;28;19917;-63
2022/12/30 08:29:08;;;;;;;;;;;;;;;3.91;100.00;100810.25;4992792;28;19913;-64
2022/12/30 08:31:33;;;;;;;;;;;;;;;4.00;100.00;100813.69;4987209;28;20300;-63
2022/12/30 08:33:58;;;;;;;;;;;;;;;4.06;100.00;100809.44;4990693;28;20291;-63
2022/12/30 08:36:25;;;;;;;;;;;;;;;4.13;100.00;100798.31;4987736;28;19917;-63
2022/12/30 08:38:52;;;;;;;;;;;;;;;4.18;100.00;100788.91;4995405;28;19922;-63
2022/12/30 08:41:18;;;;;;;;;;;;;;;4.26;100.00;100800.06;4996241;28;19917;-64
2022/12/30 08:43:43;;;;;;;;;;;;;;;4.34;100.00;100785.53;4994952;28;19988;-63
2022/12/30 08:46:09;;;;;;;;;;;;;;;4.42;100.00;100780.41;4994839;28;20012;-63
2022/12/30 08:48:34;;;;;;;;;;;;;;;4.50;100.00;100765.88;4987597;28;19920;-66
2022/12/30 08:51:00;;;;;;;;;;;;;;;4.58;100.00;100765.84;4994590;28;19909;-66
2022/12/30 08:53:25;;;;;;;;;;;;;;;4.66;100.00;100764.13;4990689;28;20296;-66
2022/12/30 08:55:57;;;;;;;;;;;;;;;4.74;100.00;100763.25;4984870;28;19917;-66
2022/12/30 08:58:23;;;;;;;;;;;;;;;4.82;100.00;100755.56;4985763;28;19914;-66
2022/12/30 09:00:48;;;;;;;;;;;;;;;4.91;100.00;100754.69;4990438;28;19924;-66
2022/12/30 09:03:14;;;;;;;;;;;;;;;4.97;100.00;100750.41;4988013;28;20483;-66
2022/12/30 09:05:39;;;;;;;;;;;;;;;5.05;100.00;100745.25;4989851;28;19914;-66
2022/12/30 09:08:05;;;;;;;;;;;;;;;5.13;100.00;100741.75;4992791;28;19964;-66
2022/12/30 09:10:30;;;;;;;;;;;;;;;5.21;100.00;100741.75;4993422;28;19918;-66
2022/12/30 09:12:55;;;;;;;;;;;;;;;5.28;100.00;100738.28;4992001;28;20369;-66
2022/12/30 09:15:20;;;;;;;;;;;;;;;5.36;100.00;100744.25;4991870;28;19921;-67
2022/12/30 09:17:45;;;;;;;;;;;;;;;5.44;100.00;100737.38;4993723;28;19917;-67
2022/12/30 09:20:11;;;;;;;;;;;;;;;5.51;100.00;100728.78;4995215;28;20009;-64
2022/12/30 09:22:36;;;;;;;;;;;;;;;5.57;100.00;100721.03;4994888;28;19996;-65
2022/12/30 09:25:01;;;;;;;;;;;;;;;5.65;100.00;100725.28;4995350;28;20388;-64
2022/12/30 09:27:26;;;;;;;;;;;;;;;5.72;100.00;100719.25;4988608;28;19913;-64
2022/12/30 09:29:51;;;;;;;;;;;;;;;5.79;100.00;100713.19;4995565;28;19921;-64
2022/12/30 09:32:17;;;;;;;;;;;;;;;5.84;100.00;100709.72;4997806;28;19910;-64
2022/12/30 09:34:42;;;;;;;;;;;;;;;5.91;100.00;100711.44;4992724;28;19917;-64
2022/12/30 09:37:08;;;;;;;;;;;;;;;6.00;100.00;100713.09;4977402;28;19918;-64
2022/12/30 09:39:33;;;;;;;;;;;;;;;6.09;100.00;100704.41;4993436;28;20373;-64
2022/12/30 09:44:43;;;;;;;;;;;;;;;6.24;100.00;100704.31;4989505;28;19925;-64
2022/12/30 09:47:08;;;;;;;;;;;;;;;6.31;100.00;100700.81;4992888;28;19914;-64
2022/12/30 09:49:39;;;;;;;;;;;;;;;6.37;100.00;100693.03;4985593;28;20574;-67
2022/12/30 09:52:10;;;;;;;;;;;;;;;6.43;100.00;100698.13;4985524;28;20159;-67
2022/12/30 09:54:39;;;;;;;;;;;;;;;6.47;100.00;100694.69;4982018;28;19997;-67
2022/12/30 09:59:54;;;;;;;;;;;;;;;6.54;100.00;100672.28;4990849;28;20003;-67
2022/12/30 10:02:21;;;;;;;;;;;;;;;6.58;100.00;100676.53;4991404;28;19924;-67
2022/12/30 10:04:47;;;;;;;;;;;;;;;6.60;100.00;100659.34;4990636;28;19914;-68
2022/12/30 10:07:17;;;;;;;;;;;;;;;6.62;100.00;100655.00;4984759;28;19921;-67
2022/12/30 10:09:52;;;;;;;;;;;;;;;6.66;100.00;100639.53;4984185;28;19917;-65
2022/12/30 10:12:17;;;;;;;;;;;;;;;6.69;100.00;100636.06;4988488;28;20384;-65
2022/12/30 10:14:51;;;;;;;;;;;;;;;6.73;100.00;100630.00;4988702;28;19910;-67
2022/12/30 10:17:26;;;;;;;;;;;;;;;6.76;100.00;100614.50;4990399;28;19968;-65
2022/12/30 10:20:01;;;;;;;;;;;;;;;6.75;100.00;100621.38;4991168;28;20295;-67
2022/12/30 10:22:33;;;;;;;;;;;;;;;6.78;100.00;100615.34;4973860;28;19906;-67
2022/12/30 10:25:04;;;;;;;;;;;;;;;6.82;100.00;100614.47;4993166;28;20364;-66
2022/12/30 10:27:35;;;;;;;;;;;;;;;6.84;100.00;100599.81;4990826;28;19985;-68
2022/12/30 10:30:01;;;;;;;;;;;;;;;6.83;100.00;100579.22;4992836;28;19909;-67
2022/12/30 10:32:28;;;;;;;;;;;;;;;6.88;100.00;100577.47;4992931;28;21269;-67
2022/12/30 10:35:01;;;;;;;;;;;;;;;6.90;100.00;100581.69;4990370;28;19914;-67
2022/12/30 10:37:26;;;;;;;;;;;;;;;6.89;100.00;100567.13;4988850;28;20372;-67
2022/12/30 10:39:52;;;;;;;;;;;;;;;6.91;100.00;100567.09;4991902;28;19918;-66
2022/12/30 10:42:20;;;;;;;;;;;;;;;6.92;100.00;100551.63;4992493;28;19914;-67
2022/12/30 10:45:04;;;;;;;;;;;;;;;6.93;100.00;100544.75;4992759;28;19910;-67
2022/12/30 10:47:32;;;;;;;;;;;;;;;6.94;100.00;100525.84;4991779;28;20400;-67
2022/12/30 10:50:03;;;;;;;;;;;;;;;6.96;100.00;100522.34;4992053;28;19921;-67
2022/12/30 10:52:29;;;;;;;;;;;;;;;6.98;100.00;100514.63;4992560;28;19933;-67
2022/12/30 10:54:55;;;;;;;;;;;;;;;7.00;100.00;100506.00;4990139;28;19960;-67
2022/12/30 10:57:23;;;;;;;;;;;;;;;7.03;100.00;100489.63;4991575;28;19914;-68
2022/12/30 10:59:49;;;;;;;;;;;;;;;7.05;100.00;100485.31;4992668;28;19913;-67
2022/12/30 11:02:31;;;;;;;;;;;;;;;7.05;100.00;100478.44;4992049;28;20008;-67
2022/12/30 11:04:59;;;;;;;;;;;;;;;7.09;100.00;100474.94;4992528;28;20518;-68
2022/12/30 11:07:24;;;;;;;;;;;;;;;7.10;100.00;100450.84;4991751;28;20300;-67
2022/12/30 11:09:49;;;;;;;;;;;;;;;7.13;100.00;100450.81;4990071;28;20384;-67
2022/12/30 11:15:03;;;;;;;;;;;;;;;7.17;100.00;100433.56;4991575;28;19963;-67
2022/12/30 11:17:44;;;;;;;;;;;;;;;7.18;100.00;100419.81;4990102;28;19952;-67
2022/12/30 11:20:12;;;;;;;;;;;;;;;7.22;100.00;100415.47;4993041;28;19914;-64
2022/12/30 11:22:44;;;;;;;;;;;;;;;7.23;100.00;100409.44;4994295;28;20372;-64
2022/12/30 11:25:21;;;;;;;;;;;;;;;7.22;100.00;100405.16;4993460;28;19914;-64
2022/12/30 11:27:49;;;;;;;;;;;;;;;7.21;100.00;100398.28;4993418;28;19921;-64
2022/12/30 11:30:35;;;;;;;;;;;;;;;7.21;100.00;100391.41;4994144;28;19920;-64
2022/12/30 11:33:02;;;;;;;;;;;;;;;7.24;100.00;100382.75;4993738;28;19949;-64
2022/12/30 11:35:32;;;;;;;;;;;;;;;7.24;100.00;100369.88;4994228;28;19914;-64
2022/12/30 11:37:57;;;;;;;;;;;;;;;7.26;100.00;100361.25;4993209;28;19925;-64
2022/12/30 11:40:31;;;;;;;;;;;;;;;7.29;100.00;100358.63;4992659;28;19909;-64
2022/12/30 11:43:05;;;;;;;;;;;;;;;7.32;100.00;100344.81;4993815;28;19914;-64
2022/12/30 11:45:30;;;;;;;;;;;;;;;7.34;100.00;100333.59;4984677;28;19975;-64
2022/12/30 11:47:56;;;;;;;;;;;;;;;7.36;100.00;100331.84;4992818;28;19949;-64
2022/12/30 11:50:21;;;;;;;;;;;;;;;7.39;100.00;100324.03;4993973;28;20319;-64
2022/12/30 11:52:55;;;;;;;;;;;;;;;7.44;100.00;100313.63;4993238;28;19949;-64
2022/12/30 11:55:22;;;;;;;;;;;;;;;7.47;100.00;100317.00;4993282;28;20392;-64
2022/12/30 11:57:48;;;;;;;;;;;;;;;7.53;100.00;100316.88;4992597;28;19918;-64
2022/12/30 12:00:13;;;;;;;;;;;;;;;7.59;100.00;100305.59;4986100;28;19934;-64
2022/12/30 12:02:40;;;;;;;;;;;;;;;7.63;100.00;100286.63;4995384;28;19933;-64
2022/12/30 12:05:24;;;;;;;;;;;;;;;7.67;100.00;100280.50;4997667;28;19945;-64
2022/12/30 12:07:51;;;;;;;;;;;;;;;7.73;100.00;100264.91;4996440;28;19922;-64
2022/12/30 12:10:19;;;;;;;;;;;;;;;7.78;100.00;100252.75;4997015;28;19937;-64
2022/12/30 12:12:50;;;;;;;;;;;;;;;7.81;100.00;100237.19;4997071;28;19921;-64
2022/12/30 12:15:22;;;;;;;;;;;;;;;7.83;100.00;100238.03;4997493;28;19910;-64
2022/12/30 12:18:06;;;;;;;;;;;;;;;7.88;100.00;100219.84;4996095;28;19945;-64
2022/12/30 12:20:31;;;;;;;;;;;;;;;7.93;100.00;100218.84;4996967;28;19914;-64
2022/12/30 12:22:56;;;;;;;;;;;;;;;7.97;100.00;100213.66;4996223;28;19920;-64
2022/12/30 12:25:23;;;;;;;;;;;;;;;8.01;100.00;100216.09;4997160;28;20541;-64
2022/12/30 12:27:49;;;;;;;;;;;;;;;8.04;100.00;100207.44;4995354;28;19917;-64
2022/12/30 12:30:15;;;;;;;;;;;;;;;8.02;100.00;100186.84;4997263;28;19916;-64
2022/12/30 12:32:54;;;;;;;;;;;;;;;8.02;100.00;100179.09;4996228;28;19932;-64
2022/12/30 12:35:38;;;;;;;;;;;;;;;8.00;100.00;100180.84;4995660;28;19914;-64
2022/12/30 12:38:09;;;;;;;;;;;;;;;7.96;100.00;100170.66;4985630;28;19912;-64
2022/12/30 12:40:40;;;;;;;;;;;;;;;7.92;100.00;100165.56;4993033;28;19918;-64
2022/12/30 12:43:17;;;;;;;;;;;;;;;7.85;100.00;100166.56;4975782;28;20043;-64
2022/12/30 12:45:42;;;;;;;;;;;;;;;7.80;100.00;100165.00;4991645;28;19925;-64
2022/12/30 12:48:15;;;;;;;;;;;;;;;7.75;100.00;100159.09;4983114;28;19918;-65
2022/12/30 12:50:51;;;;;;;;;;;;;;;7.69;100.00;100134.31;4990718;28;19960;-65
2022/12/30 12:53:17;;;;;;;;;;;;;;;7.63;100.00;100137.03;4990632;28;19969;-65
2022/12/30 12:55:57;;;;;;;;;;;;;;;7.58;100.00;100128.53;4995665;28;19958;-65
2022/12/30 12:58:35;;;;;;;;;;;;;;;7.53;100.00;100113.16;4988084;28;19920;-65
2022/12/30 13:01:19;;;;;;;;;;;;;;;7.53;100.00;100105.44;4984744;28;19909;-66
2022/12/30 13:03:53;;;;;;;;;;;;;;;7.51;100.00;100096.88;4994280;28;19917;-66
2022/12/30 13:06:18;;;;;;;;;;;;;;;7.51;100.00;100076.25;4990540;28;19988;-66
2022/12/30 13:08:43;;;;;;;;;;;;;;;7.50;100.00;100063.41;4995971;28;20339;-66
2022/12/30 13:11:27;;;;;;;;;;;;;;;7.47;100.00;100048.84;4996275;28;19925;-66
2022/12/30 13:13:52;;;;;;;;;;;;;;;7.47;100.00;100028.22;4995154;28;19914;-66
2022/12/30 13:16:20;;;;;;;;;;;;;;;7.44;100.00;100012.81;4996386;28;19946;-66
2022/12/30 13:18:47;;;;;;;;;;;;;;;7.42;100.00;100001.72;4996330;28;19948;-66
2022/12/30 13:21:13;;;;;;;;;;;;;;;7.42;100.00;99980.25;4994585;28;20180;-66
2022/12/30 13:23:46;;;;;;;;;;;;;;;7.44;100.00;99971.56;4995525;28;19909;-66
2022/12/30 13:26:12;;;;;;;;;;;;;;;7.44;100.00;99962.97;4994665;28;19925;-66
2022/12/30 13:28:38;;;;;;;;;;;;;;;7.44;100.00;99955.25;4996237;28;19913;-66
2022/12/30 13:31:09;;;;;;;;;;;;;;;7.43;100.00;99938.97;4995729;28;20395;-66
2022/12/30 13:33:34;;;;;;;;;;;;;;;7.41;100.00;99932.97;4994635;28;19988;-66
2022/12/30 13:36:10;;;;;;;;;;;;;;;7.40;100.00;99927.84;4994360;28;19953;-66
2022/12/30 13:38:47;;;;;;;;;;;;;;;7.42;100.00;99915.78;4995652;28;19916;-66
2022/12/30 13:41:21;;;;;;;;;;;;;;;7.41;100.00;99914.09;4984691;28;19960;-66